INFORMACIÓN METAR y TAF
METAR FOR SANT
ADDS - METARS form results

(2311 UTC 08 December 2019)
Data provider http://aviationweather.gov/metar/data/
 
METAR text: SANT 082300Z 25003KT CAVOK 24/19 Q1011
Conditions at: SANT (TUCUMAN/TENIENTE, AR) observed 2300 UTC 08 December 2019
Temperature: 24.0°C (75°F)
Dewpoint: 19.0°C (66°F) [RH = 74%]
Pressure (altimeter): 29.85 inches Hg (1011.0 mb)
Winds: from the WSW (250 degrees) at 3 MPH (3 knots; 1.5 m/s)
Visibility: 6 or more miles (10+ km)
Ceiling: ceiling and visibility are OK
Clouds: unknown
Weather: no significant weather observed at this time

 MAPA DE AEROPUERTO

 INFORMACIÓN DE PISTA
Pista 1 Longitud 9514 ft Ancho 148 ft
Elevación 1439 ft Umbral desplazado 0 ft Rumbo de pista 10
Pista 19 Longitud 9514 ft Ancho 148 ft
Elevación 1493 ft Umbral desplazado 0 ft Rumbo de pista 190

 FRECUANCIAS DEL AEROPUERTO
Tipo RDO Nombre TUCUMAN RD Frecuencia 122.5 MHZ
Tipo TWR Nombre TUCUMAN TW Frecuencia 119.5 MHZ

 RADIO AYUDAS DEL AEROPUERTO
Tipo VOR-DME Nombre Tucuman Frecuencia 114100 KHZ



© 2018   Charly Docampo  Arlat Virtual  Todos los Derechos Reservados    ajugar.com.ar
Powered by Virtual Airlines Manager [v2.6.2]